createdAt,value
2017-08-03T00:00:52.406Z,19.50
2017-08-03T00:03:20.618Z,19.60
2017-08-03T00:05:48.040Z,19.50
2017-08-03T00:08:16.235Z,19.60
2017-08-03T00:10:43.661Z,19.60
2017-08-03T00:13:11.861Z,19.70
2017-08-03T00:15:39.283Z,19.70
2017-08-03T00:18:07.473Z,19.80
2017-08-03T00:20:35.668Z,19.70
2017-08-03T00:23:03.095Z,19.70
2017-08-03T00:25:31.276Z,19.40
2017-08-03T00:27:58.700Z,19.40
2017-08-03T00:30:26.120Z,19.60
2017-08-03T00:32:53.538Z,19.60
2017-08-03T00:35:21.734Z,19.70
2017-08-03T00:37:49.160Z,19.60
2017-08-03T00:40:17.386Z,19.10
2017-08-03T00:42:44.808Z,19.10
2017-08-03T00:45:12.243Z,19.10
2017-08-03T00:47:39.653Z,19.00
2017-08-03T00:50:07.080Z,19.00
2017-08-03T00:52:34.549Z,19.00
2017-08-03T00:55:02.009Z,18.90
2017-08-03T00:57:29.434Z,18.90
2017-08-03T00:59:57.657Z,19.20
2017-08-03T01:02:25.081Z,19.20
2017-08-03T01:05:01.905Z,19.00
2017-08-03T01:07:29.943Z,18.90
2017-08-03T01:09:57.365Z,18.90
2017-08-03T01:12:25.559Z,19.00
2017-08-03T01:14:52.969Z,19.00
2017-08-03T01:17:20.393Z,18.90
2017-08-03T01:19:47.818Z,18.90
2017-08-03T01:22:15.248Z,18.90
2017-08-03T01:24:43.445Z,19.00
2017-08-03T01:27:10.860Z,18.90
2017-08-03T01:29:38.279Z,19.00
2017-08-03T01:32:05.708Z,19.00
2017-08-03T01:34:33.136Z,19.00
2017-08-03T01:37:01.341Z,18.90
2017-08-03T01:39:28.756Z,18.90
2017-08-03T01:41:56.247Z,18.80
2017-08-03T01:44:24.417Z,18.80
2017-08-03T01:46:51.835Z,18.70
2017-08-03T01:49:19.256Z,18.70
2017-08-03T01:51:46.720Z,18.70
2017-08-03T01:54:14.143Z,18.80
2017-08-03T01:56:41.560Z,18.70
2017-08-03T01:59:08.985Z,18.80
2017-08-03T02:01:36.412Z,18.80
2017-08-03T02:04:03.832Z,18.70
2017-08-03T02:06:31.252Z,18.90
2017-08-03T02:08:58.686Z,18.90
2017-08-03T02:11:26.120Z,18.90
2017-08-03T02:13:54.317Z,19.00
2017-08-03T02:16:21.757Z,19.00
2017-08-03T02:18:49.961Z,19.00
2017-08-03T02:21:17.389Z,19.00
2017-08-03T02:23:44.816Z,18.80
2017-08-03T02:26:12.240Z,18.70
2017-08-03T02:28:39.686Z,18.80
2017-08-03T02:31:07.130Z,18.70
2017-08-03T02:33:34.552Z,18.80
2017-08-03T02:36:02.731Z,18.80
2017-08-03T02:38:30.924Z,18.80
2017-08-03T02:40:58.350Z,18.80
2017-08-03T02:43:25.780Z,18.80
2017-08-03T02:45:53.232Z,18.90
2017-08-03T02:48:20.667Z,18.90
2017-08-03T02:50:48.093Z,19.00
2017-08-03T02:53:16.273Z,18.90
2017-08-03T02:55:43.695Z,18.90
2017-08-03T02:58:11.120Z,18.90
2017-08-03T03:00:38.568Z,18.90
2017-08-03T03:03:06.010Z,18.90
2017-08-03T03:05:33.450Z,19.00
2017-08-03T03:08:00.877Z,18.90
2017-08-03T03:10:28.292Z,18.90
2017-08-03T03:12:55.717Z,19.00
2017-08-03T03:15:23.155Z,18.90
2017-08-03T03:17:50.595Z,19.00
2017-08-03T03:20:18.021Z,19.00
2017-08-03T03:22:45.453Z,19.10
2017-08-03T03:25:12.879Z,19.10
2017-08-03T03:27:41.064Z,18.90
2017-08-03T03:30:08.494Z,18.80
2017-08-03T03:32:35.921Z,18.80
2017-08-03T03:35:03.344Z,18.80
2017-08-03T03:37:30.774Z,18.90
2017-08-03T03:39:58.956Z,19.00
2017-08-03T03:42:26.384Z,19.00
2017-08-03T03:44:53.824Z,19.00
2017-08-03T03:47:21.254Z,19.00
2017-08-03T03:49:48.672Z,18.90
2017-08-03T03:52:16.895Z,18.90
2017-08-03T03:54:44.329Z,18.90
2017-08-03T03:57:11.748Z,18.80
2017-08-03T03:59:39.936Z,18.70
2017-08-03T04:02:07.362Z,18.70
2017-08-03T04:04:34.812Z,18.80
2017-08-03T04:07:03.008Z,18.80
2017-08-03T04:09:30.427Z,18.70
2017-08-03T04:11:57.899Z,18.60
2017-08-03T04:14:26.091Z,18.70
2017-08-03T04:16:53.523Z,18.70
2017-08-03T04:19:21.721Z,18.80
2017-08-03T04:21:49.159Z,18.70
2017-08-03T04:24:17.350Z,18.90
2017-08-03T04:26:44.778Z,18.90
2017-08-03T04:29:12.969Z,18.80
2017-08-03T04:31:40.400Z,18.80
2017-08-03T04:34:07.836Z,18.80
2017-08-03T04:36:35.263Z,18.80
2017-08-03T04:39:02.687Z,18.80
2017-08-03T04:41:30.113Z,18.90
2017-08-03T04:43:57.558Z,18.90
2017-08-03T04:46:24.968Z,18.80
2017-08-03T04:51:26.354Z,18.90
2017-08-03T04:53:53.769Z,18.90
2017-08-03T04:56:21.964Z,18.80
2017-08-03T04:58:49.388Z,18.80
2017-08-03T05:01:17.585Z,18.90
2017-08-03T05:03:45.004Z,18.90
2017-08-03T05:06:12.453Z,18.90
2017-08-03T05:08:39.880Z,18.90
2017-08-03T05:11:07.308Z,19.00
2017-08-03T05:13:35.167Z,18.90
2017-08-03T05:16:02.593Z,19.00
2017-08-03T05:18:30.134Z,19.10
2017-08-03T05:20:57.565Z,19.10
2017-08-03T05:23:24.977Z,19.00
2017-08-03T05:25:53.169Z,19.00
2017-08-03T05:28:20.592Z,19.00
2017-08-03T05:30:48.011Z,19.10
2017-08-03T05:33:15.462Z,19.10
2017-08-03T05:35:42.876Z,19.20
2017-08-03T05:38:11.090Z,19.00
2017-08-03T05:40:38.511Z,19.00
2017-08-03T05:43:06.696Z,19.10
2017-08-03T05:45:35.683Z,19.10
2017-08-03T05:48:03.110Z,19.10
2017-08-03T05:50:30.549Z,19.10
2017-08-03T05:52:58.017Z,19.10
2017-08-03T05:55:25.442Z,19.10
2017-08-03T05:57:52.892Z,19.00
2017-08-03T06:00:20.317Z,19.00
2017-08-03T06:02:47.741Z,18.90
2017-08-03T06:05:15.184Z,19.00
2017-08-03T06:07:42.606Z,19.00
2017-08-03T06:10:10.036Z,19.00
2017-08-03T06:12:38.236Z,19.10
2017-08-03T06:15:05.664Z,19.10
2017-08-03T06:17:33.849Z,19.30
2017-08-03T06:20:01.313Z,19.30
2017-08-03T06:22:29.497Z,19.30
2017-08-03T06:24:56.913Z,19.20
2017-08-03T06:27:25.110Z,19.30
2017-08-03T06:29:52.532Z,19.30
2017-08-03T06:32:19.957Z,19.40
2017-08-03T06:34:47.384Z,19.70
2017-08-03T06:37:14.836Z,19.90
2017-08-03T06:39:43.035Z,20.20
2017-08-03T06:42:10.484Z,20.20
2017-08-03T06:44:37.896Z,20.10
2017-08-03T06:47:05.333Z,20.10
2017-08-03T06:49:32.769Z,20.10
2017-08-03T06:52:00.225Z,20.10
2017-08-03T06:54:27.657Z,20.00
2017-08-03T06:56:55.097Z,20.10
2017-08-03T06:59:22.534Z,20.10
2017-08-03T07:01:50.801Z,20.00
2017-08-03T07:04:18.217Z,19.90
2017-08-03T07:06:45.654Z,19.90
2017-08-03T07:09:13.097Z,19.90
2017-08-03T07:11:40.637Z,19.90
2017-08-03T07:14:08.107Z,19.80
2017-08-03T07:16:35.533Z,19.80
2017-08-03T07:19:03.149Z,19.90
2017-08-03T07:21:30.638Z,19.80
2017-08-03T07:23:58.149Z,19.80
2017-08-03T07:26:25.633Z,19.80
2017-08-03T07:28:53.074Z,19.80
2017-08-03T07:31:20.563Z,19.90
2017-08-03T07:33:47.989Z,20.00
2017-08-03T07:36:15.756Z,20.00
2017-08-03T07:38:43.177Z,20.20
2017-08-03T07:41:10.599Z,20.10
2017-08-03T07:43:38.041Z,20.20
2017-08-03T07:46:05.481Z,20.40
2017-08-03T07:48:32.988Z,20.40
2017-08-03T07:51:00.889Z,20.50
2017-08-03T07:53:29.080Z,20.60
2017-08-03T07:55:56.662Z,20.60
2017-08-03T07:58:24.113Z,20.70
2017-08-03T08:00:51.537Z,20.70
2017-08-03T08:03:19.063Z,20.80
2017-08-03T08:05:46.506Z,20.90
2017-08-03T08:08:14.443Z,21.10
2017-08-03T08:10:44.640Z,21.10
2017-08-03T08:13:12.289Z,21.10
2017-08-03T08:15:40.049Z,21.10
2017-08-03T08:18:07.585Z,21.30
2017-08-03T08:20:35.259Z,21.20
2017-08-03T08:23:02.693Z,21.20
2017-08-03T08:25:30.122Z,21.30
2017-08-03T08:27:57.552Z,21.30
2017-08-03T08:30:24.981Z,21.30
2017-08-03T08:32:52.408Z,21.20
2017-08-03T08:35:19.844Z,21.30
2017-08-03T08:37:47.268Z,21.30
2017-08-03T08:40:14.696Z,21.50
2017-08-03T08:42:42.117Z,21.60
2017-08-03T08:45:09.558Z,21.60
2017-08-03T08:47:36.978Z,21.60
2017-08-03T08:50:05.180Z,21.70
2017-08-03T08:52:32.597Z,21.60
2017-08-03T08:55:00.809Z,21.80
2017-08-03T08:57:28.242Z,21.80
2017-08-03T08:59:56.462Z,21.80
2017-08-03T09:02:23.889Z,21.80
2017-08-03T09:04:51.305Z,21.80
2017-08-03T09:07:18.724Z,21.90
2017-08-03T09:09:46.191Z,22.10
2017-08-03T09:12:13.600Z,22.30
2017-08-03T09:14:41.034Z,22.50
2017-08-03T09:17:09.266Z,22.50
2017-08-03T09:19:36.700Z,22.50
2017-08-03T09:22:04.136Z,22.80
2017-08-03T09:24:32.318Z,23.00
2017-08-03T09:26:59.765Z,23.00
2017-08-03T09:29:27.963Z,23.10
2017-08-03T09:31:55.387Z,23.10
2017-08-03T09:34:23.592Z,23.50
2017-08-03T09:36:51.004Z,23.50
2017-08-03T09:39:18.430Z,23.90
2017-08-03T09:41:45.848Z,24.10
2017-08-03T09:44:13.276Z,24.20
2017-08-03T09:46:41.481Z,24.20
2017-08-03T09:49:08.900Z,24.20
2017-08-03T09:51:36.328Z,24.20
2017-08-03T09:54:03.764Z,24.10
2017-08-03T09:56:31.201Z,24.10
2017-08-03T09:58:58.641Z,24.00
2017-08-03T10:01:26.850Z,24.00
2017-08-03T10:03:54.266Z,24.00
2017-08-03T10:06:22.485Z,24.00
2017-08-03T10:08:49.906Z,24.00
2017-08-03T10:11:18.240Z,23.90
2017-08-03T10:13:45.648Z,23.90
2017-08-03T10:16:13.104Z,23.90
2017-08-03T10:18:41.294Z,23.90
2017-08-03T10:21:08.723Z,23.90
2017-08-03T10:23:36.907Z,23.70
2017-08-03T10:26:04.343Z,23.70
2017-08-03T10:28:32.534Z,23.70
2017-08-03T10:30:59.959Z,23.70
2017-08-03T10:33:27.385Z,23.70
2017-08-03T10:35:54.813Z,23.70
2017-08-03T10:38:22.249Z,23.70
2017-08-03T10:40:49.673Z,23.70
2017-08-03T10:43:17.113Z,23.70
2017-08-03T10:45:44.544Z,23.70
2017-08-03T10:48:11.997Z,23.80
2017-08-03T10:50:39.407Z,23.70
2017-08-03T10:53:06.845Z,23.70
2017-08-03T10:55:34.271Z,23.80
2017-08-03T10:58:01.777Z,23.80
2017-08-03T11:00:29.210Z,23.80
2017-08-03T11:02:56.645Z,23.80
2017-08-03T11:05:27.370Z,23.80
2017-08-03T11:07:55.835Z,24.10
2017-08-03T11:10:23.269Z,24.10
2017-08-03T11:12:51.469Z,24.40
2017-08-03T11:15:18.914Z,24.40
2017-08-03T11:17:47.145Z,25.00
2017-08-03T11:20:14.577Z,25.00
2017-08-03T11:22:42.029Z,25.30
2017-08-03T11:25:09.528Z,25.60
2017-08-03T11:27:37.741Z,25.70
2017-08-03T11:30:05.201Z,25.70
2017-08-03T11:32:33.205Z,25.70
2017-08-03T11:35:00.633Z,25.70
2017-08-03T11:37:28.086Z,25.60
2017-08-03T11:39:55.516Z,25.90
2017-08-03T11:42:23.333Z,26.20
2017-08-03T11:44:50.762Z,26.30
2017-08-03T11:47:18.424Z,26.30
2017-08-03T11:49:45.849Z,26.30
2017-08-03T11:52:14.049Z,26.60
2017-08-03T11:54:41.491Z,26.50
2017-08-03T11:57:08.971Z,26.80
2017-08-03T11:59:36.414Z,27.00
2017-08-03T12:02:03.860Z,27.10
2017-08-03T12:04:31.360Z,27.20
2017-08-03T12:06:58.802Z,27.10
2017-08-03T12:09:26.277Z,27.10
2017-08-03T12:11:53.692Z,27.50
2017-08-03T12:14:21.122Z,27.50
2017-08-03T12:16:49.379Z,27.30
2017-08-03T12:19:17.048Z,27.30
2017-08-03T12:21:44.550Z,27.10
2017-08-03T12:24:12.154Z,26.90
2017-08-03T12:26:39.559Z,26.80
2017-08-03T12:29:07.130Z,26.90
2017-08-03T12:31:34.567Z,26.70
2017-08-03T12:34:01.993Z,26.60
2017-08-03T12:36:30.277Z,26.40
2017-08-03T12:38:58.627Z,26.20
2017-08-03T12:41:26.069Z,26.10
2017-08-03T12:43:53.568Z,25.90
2017-08-03T12:46:21.800Z,25.80
2017-08-03T12:48:50.031Z,25.80
2017-08-03T12:51:17.473Z,25.70
2017-08-03T12:53:45.654Z,25.60
2017-08-03T12:56:13.185Z,25.60
2017-08-03T12:58:40.630Z,25.50
2017-08-03T13:01:08.046Z,25.50
2017-08-03T13:03:36.169Z,25.60
2017-08-03T13:06:03.600Z,25.90
2017-08-03T13:08:31.086Z,26.20
2017-08-03T13:10:58.576Z,26.20
2017-08-03T13:13:25.997Z,25.90
2017-08-03T13:15:53.444Z,26.40
2017-08-03T13:18:22.883Z,28.50
2017-08-03T13:20:52.160Z,29.00
2017-08-03T13:23:20.358Z,30.30
2017-08-03T13:25:49.862Z,30.30
2017-08-03T13:28:17.787Z,31.10
2017-08-03T13:30:45.469Z,31.80
2017-08-03T13:33:12.934Z,31.90
2017-08-03T13:35:41.189Z,33.70
2017-08-03T13:38:08.628Z,33.70
2017-08-03T13:40:36.102Z,34.40
2017-08-03T13:43:03.543Z,34.40
2017-08-03T13:45:30.958Z,34.90
2017-08-03T13:47:58.415Z,35.20
2017-08-03T13:50:25.840Z,34.30
2017-08-03T13:52:54.026Z,34.60
2017-08-03T13:55:21.470Z,34.60
2017-08-03T13:57:49.652Z,33.90
2017-08-03T14:00:17.111Z,33.90
2017-08-03T14:02:45.298Z,32.40
2017-08-03T14:05:12.720Z,32.40
2017-08-03T14:07:40.140Z,31.90
2017-08-03T14:10:07.565Z,31.10
2017-08-03T14:12:35.009Z,29.90
2017-08-03T14:15:02.429Z,29.00
2017-08-03T14:17:29.841Z,28.00
2017-08-03T14:19:57.297Z,28.20
2017-08-03T14:22:24.709Z,28.70
2017-08-03T14:24:52.897Z,30.70
2017-08-03T14:27:21.086Z,31.60
2017-08-03T14:29:48.507Z,31.50
2017-08-03T14:32:15.917Z,32.50
2017-08-03T14:34:43.340Z,32.90
2017-08-03T14:37:11.542Z,30.60
2017-08-03T14:39:38.957Z,30.50
2017-08-03T14:42:07.132Z,30.00
2017-08-03T14:44:35.326Z,29.80
2017-08-03T14:47:02.735Z,29.70
2017-08-03T14:49:30.157Z,30.30
2017-08-03T14:51:57.620Z,31.00
2017-08-03T14:54:25.084Z,31.30
2017-08-03T14:56:52.493Z,30.80
2017-08-03T14:59:20.664Z,30.10
2017-08-03T15:01:48.918Z,30.80
2017-08-03T15:04:16.437Z,30.80
2017-08-03T15:06:43.852Z,31.20
2017-08-03T15:09:11.353Z,31.70
2017-08-03T15:11:38.764Z,32.10
2017-08-03T15:14:06.186Z,32.70
2017-08-03T15:16:33.623Z,32.80
2017-08-03T15:19:01.056Z,32.60
2017-08-03T15:21:28.470Z,33.00
2017-08-03T15:23:56.654Z,32.40
2017-08-03T15:26:24.855Z,32.00
2017-08-03T15:28:52.278Z,32.00
2017-08-03T15:31:20.645Z,31.80
2017-08-03T15:33:48.059Z,31.70
2017-08-03T15:36:15.521Z,31.90
2017-08-03T15:38:42.964Z,31.80
2017-08-03T15:41:10.383Z,31.50
2017-08-03T15:43:38.573Z,31.50
2017-08-03T15:46:06.023Z,31.50
2017-08-03T15:48:34.222Z,31.60
2017-08-03T15:51:01.627Z,31.50
2017-08-03T15:53:29.049Z,30.70
2017-08-03T15:55:56.473Z,29.50
2017-08-03T15:58:23.909Z,29.30
2017-08-03T16:00:52.088Z,28.00
2017-08-03T16:03:19.513Z,27.90
2017-08-03T16:05:48.484Z,27.90
2017-08-03T16:08:15.917Z,27.90
2017-08-03T16:10:43.412Z,27.90
2017-08-03T16:13:10.813Z,27.70
2017-08-03T16:15:38.245Z,27.40
2017-08-03T16:18:06.427Z,26.80
2017-08-03T16:20:34.652Z,26.70
2017-08-03T16:23:02.120Z,26.60
2017-08-03T16:25:29.572Z,26.60
2017-08-03T16:27:57.006Z,26.50
2017-08-03T16:30:24.410Z,26.60
2017-08-03T16:32:52.609Z,26.70
2017-08-03T16:35:20.124Z,26.70
2017-08-03T16:37:47.555Z,27.20
2017-08-03T16:40:15.189Z,27.60
2017-08-03T16:42:42.606Z,27.40
2017-08-03T16:45:10.020Z,26.90
2017-08-03T16:47:37.447Z,26.70
2017-08-03T16:50:04.906Z,26.50
2017-08-03T16:52:33.077Z,26.50
2017-08-03T16:55:02.734Z,26.50
2017-08-03T16:57:30.164Z,26.40
2017-08-03T16:59:57.595Z,26.60
2017-08-03T17:02:25.024Z,26.50
2017-08-03T17:04:52.440Z,26.40
2017-08-03T17:07:19.861Z,26.30
2017-08-03T17:09:47.281Z,26.20
2017-08-03T17:12:14.713Z,26.00
2017-08-03T17:14:42.137Z,25.90
2017-08-03T17:17:09.563Z,25.80
2017-08-03T17:19:36.984Z,25.80
2017-08-03T17:22:04.410Z,25.80
2017-08-03T17:24:31.835Z,25.70
2017-08-03T17:26:59.263Z,25.60
2017-08-03T17:29:26.688Z,25.50
2017-08-03T17:31:54.104Z,25.40
2017-08-03T17:34:22.304Z,25.30
2017-08-03T17:36:49.725Z,25.30
2017-08-03T17:39:17.153Z,25.30
2017-08-03T17:41:44.576Z,25.30
2017-08-03T17:44:11.993Z,25.20
2017-08-03T17:46:39.423Z,25.10
2017-08-03T17:49:06.833Z,25.00
2017-08-03T17:51:34.263Z,25.00
2017-08-03T17:54:02.452Z,24.90
2017-08-03T17:56:30.640Z,24.90
2017-08-03T17:58:58.057Z,24.90
2017-08-03T18:01:25.476Z,24.90
2017-08-03T18:03:52.934Z,24.90
2017-08-03T18:06:20.377Z,24.80
2017-08-03T18:08:47.804Z,24.70
2017-08-03T18:11:15.980Z,24.60
2017-08-03T18:13:43.393Z,24.50
2017-08-03T18:16:10.816Z,24.50
2017-08-03T18:18:38.241Z,24.40
2017-08-03T18:21:06.434Z,24.30
2017-08-03T18:23:33.849Z,24.30
2017-08-03T18:26:01.377Z,24.30
2017-08-03T18:28:28.784Z,24.20
2017-08-03T18:30:56.199Z,24.10
2017-08-03T18:33:23.630Z,24.20
2017-08-03T18:35:51.068Z,24.10
2017-08-03T18:38:18.483Z,24.10
2017-08-03T18:40:46.669Z,24.00
2017-08-03T18:43:14.878Z,24.00
2017-08-03T18:45:42.303Z,23.90
2017-08-03T18:48:10.505Z,23.90
2017-08-03T18:50:37.952Z,23.90
2017-08-03T18:53:05.377Z,23.80
2017-08-03T18:55:33.564Z,23.70
2017-08-03T18:58:01.760Z,23.70
2017-08-03T19:00:29.216Z,23.70
2017-08-03T19:02:56.636Z,23.70
2017-08-03T19:05:24.865Z,23.60
2017-08-03T19:07:52.291Z,23.60
2017-08-03T19:10:19.722Z,23.60
2017-08-03T19:12:47.156Z,23.50
2017-08-03T19:15:14.580Z,23.50
2017-08-03T19:17:42.005Z,23.40
2017-08-03T19:20:09.420Z,23.40
2017-08-03T19:22:36.845Z,23.40
2017-08-03T19:25:04.259Z,23.40
2017-08-03T19:27:32.485Z,23.20
2017-08-03T19:29:59.908Z,23.20
2017-08-03T19:32:27.313Z,23.10
2017-08-03T19:34:54.735Z,23.10
2017-08-03T19:37:22.160Z,23.10
2017-08-03T19:39:50.377Z,23.00
2017-08-03T19:42:17.801Z,23.00
2017-08-03T19:44:45.242Z,22.90
2017-08-03T19:47:12.669Z,22.90
2017-08-03T19:49:40.090Z,22.80
2017-08-03T19:52:07.520Z,22.80
2017-08-03T19:54:34.951Z,22.70
2017-08-03T19:57:03.140Z,22.60
2017-08-03T19:59:31.320Z,22.60
2017-08-03T20:01:58.768Z,22.60
2017-08-03T20:04:26.176Z,22.60
2017-08-03T20:07:05.472Z,22.50
2017-08-03T20:09:36.880Z,22.50
2017-08-03T20:12:04.305Z,22.40
2017-08-03T20:14:31.736Z,22.40
2017-08-03T20:16:59.173Z,22.40
2017-08-03T20:19:26.636Z,22.30
2017-08-03T20:21:54.048Z,22.30
2017-08-03T20:24:21.489Z,22.30
2017-08-03T20:29:29.281Z,22.40
2017-08-03T20:31:56.725Z,22.30
2017-08-03T20:34:24.144Z,22.40
2017-08-03T20:36:52.336Z,22.40
2017-08-03T20:39:20.541Z,22.40
2017-08-03T20:41:48.087Z,22.40
2017-08-03T20:44:15.656Z,22.40
2017-08-03T20:46:43.091Z,22.40
2017-08-03T20:49:10.526Z,22.40
2017-08-03T20:51:38.815Z,22.30
2017-08-03T20:54:06.271Z,22.30
2017-08-03T20:56:34.449Z,22.20
2017-08-03T20:59:01.879Z,22.20
2017-08-03T21:01:29.296Z,22.20
2017-08-03T21:03:56.765Z,22.10
2017-08-03T21:06:24.207Z,22.00
2017-08-03T21:08:51.632Z,22.00
2017-08-03T21:11:19.117Z,22.00
2017-08-03T21:13:46.578Z,22.00
2017-08-03T21:16:14.015Z,21.90
2017-08-03T21:18:41.435Z,21.90
2017-08-03T21:21:09.632Z,21.80
2017-08-03T21:23:37.069Z,21.80
2017-08-03T21:26:05.306Z,21.80
2017-08-03T21:28:32.732Z,21.80
2017-08-03T21:31:00.178Z,21.60
2017-08-03T21:33:27.610Z,21.50
2017-08-03T21:35:55.799Z,21.50
2017-08-03T21:38:23.210Z,21.50
2017-08-03T21:40:50.646Z,21.60
2017-08-03T21:43:18.066Z,21.60
2017-08-03T21:45:45.481Z,21.60
2017-08-03T21:48:12.908Z,21.50
2017-08-03T21:50:40.336Z,21.50
2017-08-03T21:53:07.757Z,21.40
2017-08-03T21:55:35.264Z,21.50
2017-08-03T21:58:02.695Z,21.40
2017-08-03T22:00:42.158Z,21.50
2017-08-03T22:03:09.603Z,21.50
2017-08-03T22:05:37.024Z,21.40
2017-08-03T22:08:05.250Z,21.40
2017-08-03T22:10:32.673Z,21.40
2017-08-03T22:13:00.098Z,21.40
2017-08-03T22:15:27.521Z,21.40
2017-08-03T22:17:54.953Z,21.40
2017-08-03T22:20:22.381Z,21.50
2017-08-03T22:22:50.585Z,21.40
2017-08-03T22:25:18.001Z,21.40
2017-08-03T22:27:46.240Z,21.40
2017-08-03T22:30:13.711Z,21.40
2017-08-03T22:32:41.175Z,21.40
2017-08-03T22:35:08.604Z,21.40
2017-08-03T22:37:36.021Z,21.30
2017-08-03T22:40:03.449Z,21.20
2017-08-03T22:42:30.875Z,21.20
2017-08-03T22:44:58.302Z,21.20
2017-08-03T22:47:25.717Z,21.20
2017-08-03T22:49:53.148Z,21.10
2017-08-03T22:52:20.593Z,21.10
2017-08-03T22:54:48.039Z,21.10
2017-08-03T22:57:15.448Z,21.00
2017-08-03T22:59:43.642Z,21.00
2017-08-03T23:02:11.149Z,21.00
2017-08-03T23:04:38.582Z,21.00
2017-08-03T23:07:06.058Z,21.00
2017-08-03T23:09:33.462Z,21.00
2017-08-03T23:12:00.892Z,21.00
2017-08-03T23:14:28.305Z,21.00
2017-08-03T23:16:55.719Z,21.00
2017-08-03T23:22:29.504Z,21.00
2017-08-03T23:24:56.934Z,20.90
2017-08-03T23:27:24.356Z,20.90
2017-08-03T23:29:51.794Z,20.80
2017-08-03T23:32:19.989Z,20.80
2017-08-03T23:34:47.468Z,20.80
2017-08-03T23:37:14.917Z,20.80
2017-08-03T23:39:46.342Z,20.80
2017-08-03T23:42:14.539Z,20.80
2017-08-03T23:44:41.948Z,20.80
2017-08-03T23:47:09.392Z,20.70
2017-08-03T23:49:36.811Z,20.70
2017-08-03T23:52:04.240Z,20.60
2017-08-03T23:54:31.652Z,20.60
2017-08-03T23:56:59.080Z,20.60
2017-08-03T23:59:26.529Z,20.60
